Terminal Aerodrome Forecast
Issued by NWS

Home | Current Version | Previous Version | Text Only | Print | Product List | Glossary On
Versions: 1 2 3 4 5 6 7 8 9 10 11 12 13 14 15 16 17 18 19 20
000
FTUS41 KGYX 281123
TAFAUG
TAF
KAUG 281123Z 2812/2912 01006KT P6SM SCT050 BKN090
      TEMPO 2813/2815 -SHSN BKN050
     FM282000 32005KT P6SM SCT050=

USA.gov is the U.S. government's official web portal to all federal, state and local government web resources and services.